sensor_id;sensor_type;location;lat;lon;timestamp;P1;durP1;ratioP1;P2;durP2;ratioP2
69912;SDS011;57198;52.082;5.108;2023-02-18T00:01:10;42.25;;;19.55;;
69912;SDS011;57198;52.082;5.108;2023-02-18T00:03:37;45.23;;;20.10;;
69912;SDS011;57198;52.082;5.108;2023-02-18T00:06:20;42.22;;;19.85;;
69912;SDS011;57198;52.082;5.108;2023-02-18T00:08:47;46.70;;;18.30;;
69912;SDS011;57198;52.082;5.108;2023-02-18T00:11:15;45.78;;;20.02;;
69912;SDS011;57198;52.082;5.108;2023-02-18T00:13:47;42.65;;;19.70;;
69912;SDS011;57198;52.082;5.108;2023-02-18T00:16:15;46.70;;;19.80;;
69912;SDS011;57198;52.082;5.108;2023-02-18T00:18:42;45.97;;;20.30;;
69912;SDS011;57198;52.082;5.108;2023-02-18T00:21:09;50.55;;;19.77;;
69912;SDS011;57198;52.082;5.108;2023-02-18T00:23:37;44.70;;;20.83;;
69912;SDS011;57198;52.082;5.108;2023-02-18T00:28:32;49.10;;;21.13;;
69912;SDS011;57198;52.082;5.108;2023-02-18T00:31:05;45.97;;;19.25;;
69912;SDS011;57198;52.082;5.108;2023-02-18T00:33:32;55.67;;;21.77;;
69912;SDS011;57198;52.082;5.108;2023-02-18T00:36:03;58.92;;;21.92;;
69912;SDS011;57198;52.082;5.108;2023-02-18T00:38:32;44.67;;;19.60;;
69912;SDS011;57198;52.082;5.108;2023-02-18T00:41:00;41.33;;;17.83;;
69912;SDS011;57198;52.082;5.108;2023-02-18T00:43:27;56.70;;;20.20;;
69912;SDS011;57198;52.082;5.108;2023-02-18T00:45:55;56.30;;;19.63;;
69912;SDS011;57198;52.082;5.108;2023-02-18T00:48:22;45.20;;;17.77;;
69912;SDS011;57198;52.082;5.108;2023-02-18T00:50:49;39.78;;;17.45;;
69912;SDS011;57198;52.082;5.108;2023-02-18T00:53:16;39.47;;;16.17;;
69912;SDS011;57198;52.082;5.108;2023-02-18T00:55:45;49.05;;;17.35;;
69912;SDS011;57198;52.082;5.108;2023-02-18T00:58:13;64.25;;;16.45;;
69912;SDS011;57198;52.082;5.108;2023-02-18T01:00:41;38.63;;;15.35;;
69912;SDS011;57198;52.082;5.108;2023-02-18T01:03:08;35.13;;;16.27;;
69912;SDS011;57198;52.082;5.108;2023-02-18T01:05:36;34.08;;;15.77;;
69912;SDS011;57198;52.082;5.108;2023-02-18T01:08:05;37.80;;;15.88;;
69912;SDS011;57198;52.082;5.108;2023-02-18T01:10:33;32.53;;;15.10;;
69912;SDS011;57198;52.082;5.108;2023-02-18T01:13:03;32.15;;;15.07;;
69912;SDS011;57198;52.082;5.108;2023-02-18T01:15:30;38.50;;;16.73;;
69912;SDS011;57198;52.082;5.108;2023-02-18T01:17:57;31.52;;;12.13;;
69912;SDS011;57198;52.082;5.108;2023-02-18T01:20:25;39.42;;;14.40;;
69912;SDS011;57198;52.082;5.108;2023-02-18T01:22:52;26.55;;;13.35;;
69912;SDS011;57198;52.082;5.108;2023-02-18T01:25:20;35.92;;;13.85;;
69912;SDS011;57198;52.082;5.108;2023-02-18T01:27:47;33.88;;;14.60;;
69912;SDS011;57198;52.082;5.108;2023-02-18T01:30:15;30.73;;;12.73;;
69912;SDS011;57198;52.082;5.108;2023-02-18T01:32:43;46.45;;;14.88;;
69912;SDS011;57198;52.082;5.108;2023-02-18T01:35:12;38.38;;;14.18;;
69912;SDS011;57198;52.082;5.108;2023-02-18T01:37:39;46.97;;;15.10;;
69912;SDS011;57198;52.082;5.108;2023-02-18T01:40:07;53.15;;;14.90;;
69912;SDS011;57198;52.082;5.108;2023-02-18T01:42:36;28.65;;;13.32;;
69912;SDS011;57198;52.082;5.108;2023-02-18T01:47:50;44.40;;;15.20;;
69912;SDS011;57198;52.082;5.108;2023-02-18T01:50:17;44.45;;;16.05;;
69912;SDS011;57198;52.082;5.108;2023-02-18T01:52:46;41.28;;;15.25;;
69912;SDS011;57198;52.082;5.108;2023-02-18T01:55:13;38.22;;;15.82;;
69912;SDS011;57198;52.082;5.108;2023-02-18T01:57:41;47.65;;;17.40;;
69912;SDS011;57198;52.082;5.108;2023-02-18T02:00:11;47.15;;;15.77;;
69912;SDS011;57198;52.082;5.108;2023-02-18T02:02:45;56.15;;;15.82;;
69912;SDS011;57198;52.082;5.108;2023-02-18T02:05:13;51.22;;;16.05;;
69912;SDS011;57198;52.082;5.108;2023-02-18T02:07:40;48.47;;;15.73;;
69912;SDS011;57198;52.082;5.108;2023-02-18T02:10:09;41.28;;;16.67;;
69912;SDS011;57198;52.082;5.108;2023-02-18T02:21:02;54.30;;;18.80;;
69912;SDS011;57198;52.082;5.108;2023-02-18T02:29:19;51.97;;;18.90;;
69912;SDS011;57198;52.082;5.108;2023-02-18T02:37:30;52.28;;;17.08;;
69912;SDS011;57198;52.082;5.108;2023-02-18T02:42:51;42.30;;;17.55;;
69912;SDS011;57198;52.082;5.108;2023-02-18T02:45:37;54.40;;;17.38;;
69912;SDS011;57198;52.082;5.108;2023-02-18T02:53:30;45.45;;;17.27;;
69912;SDS011;57198;52.082;5.108;2023-02-18T02:55:59;49.10;;;17.15;;
69912;SDS011;57198;52.082;5.108;2023-02-18T02:58:27;50.85;;;18.25;;
69912;SDS011;57198;52.082;5.108;2023-02-18T03:01:03;39.95;;;15.90;;
69912;SDS011;57198;52.082;5.108;2023-02-18T03:11:22;32.92;;;15.18;;
69912;SDS011;57198;52.082;5.108;2023-02-18T03:13:52;43.53;;;16.45;;
69912;SDS011;57198;52.082;5.108;2023-02-18T03:16:35;36.05;;;16.85;;
69912;SDS011;57198;52.082;5.108;2023-02-18T03:21:46;34.53;;;14.43;;
69912;SDS011;57198;52.082;5.108;2023-02-18T03:24:24;29.08;;;13.18;;
69912;SDS011;57198;52.082;5.108;2023-02-18T03:26:55;22.75;;;11.73;;
69912;SDS011;57198;52.082;5.108;2023-02-18T03:29:23;23.55;;;11.00;;
69912;SDS011;57198;52.082;5.108;2023-02-18T03:31:53;18.15;;;8.93;;
69912;SDS011;57198;52.082;5.108;2023-02-18T03:34:28;17.23;;;8.63;;
69912;SDS011;57198;52.082;5.108;2023-02-18T03:36:57;21.17;;;8.48;;
69912;SDS011;57198;52.082;5.108;2023-02-18T03:39:25;14.43;;;7.53;;
69912;SDS011;57198;52.082;5.108;2023-02-18T03:41:53;12.02;;;6.60;;
69912;SDS011;57198;52.082;5.108;2023-02-18T03:44:21;11.65;;;6.50;;
69912;SDS011;57198;52.082;5.108;2023-02-18T03:46:50;11.63;;;6.18;;
69912;SDS011;57198;52.082;5.108;2023-02-18T03:49:18;10.82;;;6.80;;
69912;SDS011;57198;52.082;5.108;2023-02-18T03:51:46;9.75;;;6.82;;
69912;SDS011;57198;52.082;5.108;2023-02-18T03:54:14;10.32;;;6.38;;
69912;SDS011;57198;52.082;5.108;2023-02-18T03:56:41;9.55;;;6.45;;
69912;SDS011;57198;52.082;5.108;2023-02-18T03:59:10;9.48;;;6.07;;
69912;SDS011;57198;52.082;5.108;2023-02-18T04:01:37;9.35;;;6.05;;
69912;SDS011;57198;52.082;5.108;2023-02-18T04:04:05;11.52;;;6.72;;
69912;SDS011;57198;52.082;5.108;2023-02-18T04:06:32;10.55;;;7.13;;
69912;SDS011;57198;52.082;5.108;2023-02-18T04:09:00;12.18;;;7.20;;
69912;SDS011;57198;52.082;5.108;2023-02-18T04:11:27;9.10;;;6.38;;
69912;SDS011;57198;52.082;5.108;2023-02-18T04:13:55;11.48;;;6.75;;
69912;SDS011;57198;52.082;5.108;2023-02-18T04:16:22;9.65;;;6.88;;
69912;SDS011;57198;52.082;5.108;2023-02-18T04:18:50;11.88;;;7.40;;
69912;SDS011;57198;52.082;5.108;2023-02-18T04:21:17;9.23;;;6.72;;
69912;SDS011;57198;52.082;5.108;2023-02-18T04:23:44;10.75;;;6.45;;
69912;SDS011;57198;52.082;5.108;2023-02-18T04:26:11;9.05;;;5.90;;
69912;SDS011;57198;52.082;5.108;2023-02-18T04:28:39;8.80;;;6.30;;
69912;SDS011;57198;52.082;5.108;2023-02-18T04:31:06;11.60;;;7.28;;
69912;SDS011;57198;52.082;5.108;2023-02-18T04:33:33;9.40;;;6.68;;
69912;SDS011;57198;52.082;5.108;2023-02-18T04:36:01;10.07;;;6.22;;
69912;SDS011;57198;52.082;5.108;2023-02-18T04:38:29;8.52;;;6.30;;
69912;SDS011;57198;52.082;5.108;2023-02-18T04:40:56;8.53;;;5.97;;
69912;SDS011;57198;52.082;5.108;2023-02-18T04:43:23;7.25;;;5.47;;
69912;SDS011;57198;52.082;5.108;2023-02-18T04:45:50;7.47;;;4.90;;
69912;SDS011;57198;52.082;5.108;2023-02-18T04:48:18;6.75;;;5.93;;
69912;SDS011;57198;52.082;5.108;2023-02-18T04:50:46;7.80;;;6.10;;
69912;SDS011;57198;52.082;5.108;2023-02-18T04:53:13;10.27;;;6.07;;
69912;SDS011;57198;52.082;5.108;2023-02-18T04:55:40;7.53;;;6.63;;
69912;SDS011;57198;52.082;5.108;2023-02-18T04:58:07;11.07;;;7.35;;
69912;SDS011;57198;52.082;5.108;2023-02-18T05:00:36;9.25;;;6.78;;
69912;SDS011;57198;52.082;5.108;2023-02-18T05:03:03;8.23;;;7.13;;
69912;SDS011;57198;52.082;5.108;2023-02-18T05:05:30;11.95;;;7.63;;
69912;SDS011;57198;52.082;5.108;2023-02-18T05:07:57;9.48;;;8.27;;
69912;SDS011;57198;52.082;5.108;2023-02-18T05:10:25;11.30;;;8.93;;
69912;SDS011;57198;52.082;5.108;2023-02-18T05:12:52;13.90;;;10.43;;
69912;SDS011;57198;52.082;5.108;2023-02-18T05:15:19;12.50;;;8.95;;
69912;SDS011;57198;52.082;5.108;2023-02-18T05:17:46;17.25;;;9.95;;
69912;SDS011;57198;52.082;5.108;2023-02-18T05:20:14;13.40;;;8.63;;
69912;SDS011;57198;52.082;5.108;2023-02-18T05:22:41;12.48;;;9.45;;
69912;SDS011;57198;52.082;5.108;2023-02-18T05:25:08;14.30;;;10.13;;
69912;SDS011;57198;52.082;5.108;2023-02-18T05:27:36;16.42;;;10.88;;
69912;SDS011;57198;52.082;5.108;2023-02-18T05:30:03;19.90;;;13.05;;
69912;SDS011;57198;52.082;5.108;2023-02-18T05:32:31;21.88;;;13.20;;
69912;SDS011;57198;52.082;5.108;2023-02-18T05:34:58;19.45;;;13.02;;
69912;SDS011;57198;52.082;5.108;2023-02-18T05:37:25;16.15;;;12.38;;
69912;SDS011;57198;52.082;5.108;2023-02-18T05:39:53;19.88;;;12.32;;
69912;SDS011;57198;52.082;5.108;2023-02-18T05:42:20;20.67;;;13.25;;
69912;SDS011;57198;52.082;5.108;2023-02-18T05:44:48;18.10;;;11.75;;
69912;SDS011;57198;52.082;5.108;2023-02-18T05:47:16;18.35;;;10.85;;
69912;SDS011;57198;52.082;5.108;2023-02-18T05:49:43;15.68;;;9.40;;
69912;SDS011;57198;52.082;5.108;2023-02-18T05:52:11;16.58;;;10.45;;
69912;SDS011;57198;52.082;5.108;2023-02-18T05:54:38;16.08;;;9.82;;
69912;SDS011;57198;52.082;5.108;2023-02-18T05:57:06;15.88;;;10.80;;
69912;SDS011;57198;52.082;5.108;2023-02-18T05:59:33;15.63;;;10.18;;
69912;SDS011;57198;52.082;5.108;2023-02-18T06:02:00;16.67;;;11.65;;
69912;SDS011;57198;52.082;5.108;2023-02-18T06:04:28;18.33;;;11.95;;
69912;SDS011;57198;52.082;5.108;2023-02-18T06:06:55;15.43;;;10.45;;
69912;SDS011;57198;52.082;5.108;2023-02-18T06:09:22;16.23;;;10.45;;
69912;SDS011;57198;52.082;5.108;2023-02-18T06:11:50;16.30;;;10.93;;
69912;SDS011;57198;52.082;5.108;2023-02-18T06:14:17;19.20;;;11.85;;
69912;SDS011;57198;52.082;5.108;2023-02-18T06:16:44;16.00;;;9.75;;
69912;SDS011;57198;52.082;5.108;2023-02-18T06:19:12;17.02;;;12.13;;
69912;SDS011;57198;52.082;5.108;2023-02-18T06:21:39;15.98;;;11.15;;
69912;SDS011;57198;52.082;5.108;2023-02-18T06:24:06;19.85;;;11.77;;
69912;SDS011;57198;52.082;5.108;2023-02-18T06:26:34;17.83;;;10.23;;
69912;SDS011;57198;52.082;5.108;2023-02-18T06:29:01;20.75;;;11.57;;
69912;SDS011;57198;52.082;5.108;2023-02-18T06:31:28;20.05;;;11.52;;
69912;SDS011;57198;52.082;5.108;2023-02-18T06:33:56;17.80;;;10.23;;
69912;SDS011;57198;52.082;5.108;2023-02-18T06:36:23;21.80;;;12.95;;
69912;SDS011;57198;52.082;5.108;2023-02-18T06:38:50;21.33;;;11.43;;
69912;SDS011;57198;52.082;5.108;2023-02-18T06:41:19;20.63;;;10.05;;
69912;SDS011;57198;52.082;5.108;2023-02-18T06:43:47;25.02;;;13.40;;
69912;SDS011;57198;52.082;5.108;2023-02-18T06:46:14;24.80;;;12.32;;
69912;SDS011;57198;52.082;5.108;2023-02-18T06:48:41;21.05;;;12.45;;
69912;SDS011;57198;52.082;5.108;2023-02-18T06:51:09;24.65;;;11.93;;
69912;SDS011;57198;52.082;5.108;2023-02-18T06:53:36;13.98;;;8.05;;
69912;SDS011;57198;52.082;5.108;2023-02-18T06:56:03;19.45;;;11.38;;
69912;SDS011;57198;52.082;5.108;2023-02-18T06:58:31;21.80;;;10.95;;
69912;SDS011;57198;52.082;5.108;2023-02-18T07:00:58;19.10;;;10.00;;
69912;SDS011;57198;52.082;5.108;2023-02-18T07:03:26;17.67;;;9.77;;
69912;SDS011;57198;52.082;5.108;2023-02-18T07:05:53;18.17;;;9.68;;
69912;SDS011;57198;52.082;5.108;2023-02-18T07:08:21;20.37;;;10.93;;
69912;SDS011;57198;52.082;5.108;2023-02-18T07:10:48;21.48;;;11.60;;
69912;SDS011;57198;52.082;5.108;2023-02-18T07:13:16;20.40;;;11.25;;
69912;SDS011;57198;52.082;5.108;2023-02-18T07:15:43;23.67;;;10.23;;
69912;SDS011;57198;52.082;5.108;2023-02-18T07:18:10;27.13;;;10.90;;
69912;SDS011;57198;52.082;5.108;2023-02-18T07:20:38;17.67;;;9.95;;
69912;SDS011;57198;52.082;5.108;2023-02-18T07:23:05;16.30;;;8.35;;
69912;SDS011;57198;52.082;5.108;2023-02-18T07:25:32;19.27;;;9.40;;
69912;SDS011;57198;52.082;5.108;2023-02-18T07:27:59;17.75;;;8.48;;
69912;SDS011;57198;52.082;5.108;2023-02-18T07:30:27;18.30;;;8.95;;
69912;SDS011;57198;52.082;5.108;2023-02-18T07:32:54;17.83;;;9.63;;
69912;SDS011;57198;52.082;5.108;2023-02-18T07:35:22;19.10;;;9.18;;
69912;SDS011;57198;52.082;5.108;2023-02-18T07:37:49;11.82;;;6.65;;
69912;SDS011;57198;52.082;5.108;2023-02-18T07:40:18;13.52;;;6.38;;
69912;SDS011;57198;52.082;5.108;2023-02-18T07:42:46;17.25;;;7.00;;
69912;SDS011;57198;52.082;5.108;2023-02-18T07:45:13;14.00;;;5.90;;
69912;SDS011;57198;52.082;5.108;2023-02-18T07:47:40;13.68;;;4.97;;
69912;SDS011;57198;52.082;5.108;2023-02-18T07:50:08;16.73;;;5.45;;
69912;SDS011;57198;52.082;5.108;2023-02-18T07:52:35;19.90;;;5.45;;
69912;SDS011;57198;52.082;5.108;2023-02-18T07:55:03;23.50;;;6.40;;
69912;SDS011;57198;52.082;5.108;2023-02-18T07:57:30;13.47;;;3.90;;
69912;SDS011;57198;52.082;5.108;2023-02-18T07:59:57;16.83;;;4.28;;
69912;SDS011;57198;52.082;5.108;2023-02-18T08:02:25;17.10;;;5.22;;
69912;SDS011;57198;52.082;5.108;2023-02-18T08:04:52;16.42;;;4.22;;
69912;SDS011;57198;52.082;5.108;2023-02-18T08:07:19;14.45;;;4.03;;
69912;SDS011;57198;52.082;5.108;2023-02-18T08:09:47;12.10;;;3.40;;
69912;SDS011;57198;52.082;5.108;2023-02-18T08:12:16;17.65;;;3.78;;
69912;SDS011;57198;52.082;5.108;2023-02-18T08:14:43;14.60;;;3.80;;
69912;SDS011;57198;52.082;5.108;2023-02-18T08:17:10;12.77;;;4.03;;
69912;SDS011;57198;52.082;5.108;2023-02-18T08:19:38;10.35;;;3.45;;
69912;SDS011;57198;52.082;5.108;2023-02-18T08:22:05;11.60;;;3.27;;
69912;SDS011;57198;52.082;5.108;2023-02-18T08:24:32;12.35;;;3.67;;
69912;SDS011;57198;52.082;5.108;2023-02-18T08:26:59;9.98;;;3.10;;
69912;SDS011;57198;52.082;5.108;2023-02-18T08:29:27;13.23;;;4.05;;
69912;SDS011;57198;52.082;5.108;2023-02-18T08:31:55;15.70;;;3.47;;
69912;SDS011;57198;52.082;5.108;2023-02-18T08:34:23;11.97;;;4.27;;
69912;SDS011;57198;52.082;5.108;2023-02-18T08:36:51;11.35;;;3.47;;
69912;SDS011;57198;52.082;5.108;2023-02-18T08:39:18;13.82;;;3.63;;
69912;SDS011;57198;52.082;5.108;2023-02-18T08:41:45;17.30;;;3.13;;
69912;SDS011;57198;52.082;5.108;2023-02-18T08:44:13;15.43;;;3.10;;
69912;SDS011;57198;52.082;5.108;2023-02-18T08:46:40;10.13;;;3.00;;
69912;SDS011;57198;52.082;5.108;2023-02-18T08:49:07;14.32;;;3.15;;
69912;SDS011;57198;52.082;5.108;2023-02-18T08:51:35;15.00;;;3.28;;
69912;SDS011;57198;52.082;5.108;2023-02-18T08:54:02;7.30;;;2.55;;
69912;SDS011;57198;52.082;5.108;2023-02-18T08:56:30;8.60;;;2.33;;
69912;SDS011;57198;52.082;5.108;2023-02-18T08:58:58;9.18;;;2.40;;
69912;SDS011;57198;52.082;5.108;2023-02-18T09:01:25;9.65;;;3.03;;
69912;SDS011;57198;52.082;5.108;2023-02-18T09:03:53;13.05;;;2.72;;
69912;SDS011;57198;52.082;5.108;2023-02-18T09:06:20;10.18;;;3.15;;
69912;SDS011;57198;52.082;5.108;2023-02-18T09:08:47;13.13;;;3.63;;
69912;SDS011;57198;52.082;5.108;2023-02-18T09:11:15;10.77;;;2.97;;
69912;SDS011;57198;52.082;5.108;2023-02-18T09:13:42;8.80;;;2.85;;
69912;SDS011;57198;52.082;5.108;2023-02-18T09:16:14;6.53;;;2.50;;
69912;SDS011;57198;52.082;5.108;2023-02-18T09:18:45;16.63;;;3.80;;
69912;SDS011;57198;52.082;5.108;2023-02-18T09:21:13;12.48;;;3.63;;
69912;SDS011;57198;52.082;5.108;2023-02-18T09:23:41;13.27;;;3.08;;
69912;SDS011;57198;52.082;5.108;2023-02-18T09:26:09;11.35;;;3.03;;
69912;SDS011;57198;52.082;5.108;2023-02-18T09:28:39;12.95;;;3.20;;
69912;SDS011;57198;52.082;5.108;2023-02-18T09:31:08;8.32;;;3.03;;
69912;SDS011;57198;52.082;5.108;2023-02-18T09:33:41;14.45;;;2.42;;
69912;SDS011;57198;52.082;5.108;2023-02-18T09:36:11;13.55;;;2.88;;
69912;SDS011;57198;52.082;5.108;2023-02-18T09:38:38;6.03;;;3.22;;
69912;SDS011;57198;52.082;5.108;2023-02-18T09:41:07;16.95;;;3.63;;
69912;SDS011;57198;52.082;5.108;2023-02-18T09:43:43;11.70;;;2.50;;
69912;SDS011;57198;52.082;5.108;2023-02-18T09:46:16;13.68;;;3.20;;
69912;SDS011;57198;52.082;5.108;2023-02-18T09:48:45;14.77;;;3.30;;
69912;SDS011;57198;52.082;5.108;2023-02-18T09:51:16;12.85;;;3.55;;
69912;SDS011;57198;52.082;5.108;2023-02-18T09:53:43;15.50;;;3.45;;
69912;SDS011;57198;52.082;5.108;2023-02-18T09:56:16;10.45;;;3.42;;
69912;SDS011;57198;52.082;5.108;2023-02-18T09:58:46;13.32;;;2.92;;
69912;SDS011;57198;52.082;5.108;2023-02-18T10:03:47;10.88;;;2.95;;
69912;SDS011;57198;52.082;5.108;2023-02-18T10:06:16;11.25;;;3.05;;
69912;SDS011;57198;52.082;5.108;2023-02-18T10:08:45;12.05;;;3.47;;
69912;SDS011;57198;52.082;5.108;2023-02-18T10:11:14;14.82;;;3.40;;
69912;SDS011;57198;52.082;5.108;2023-02-18T10:13:42;12.00;;;3.17;;
69912;SDS011;57198;52.082;5.108;2023-02-18T10:16:14;12.02;;;3.08;;
69912;SDS011;57198;52.082;5.108;2023-02-18T10:18:43;10.35;;;2.65;;
69912;SDS011;57198;52.082;5.108;2023-02-18T10:21:14;15.45;;;4.20;;
69912;SDS011;57198;52.082;5.108;2023-02-18T10:26:20;17.60;;;3.87;;
69912;SDS011;57198;52.082;5.108;2023-02-18T10:28:47;14.40;;;3.08;;
69912;SDS011;57198;52.082;5.108;2023-02-18T10:31:17;8.05;;;2.55;;
69912;SDS011;57198;52.082;5.108;2023-02-18T10:33:58;11.30;;;3.55;;
69912;SDS011;57198;52.082;5.108;2023-02-18T10:36:36;10.15;;;3.25;;
69912;SDS011;57198;52.082;5.108;2023-02-18T10:39:20;16.77;;;3.87;;
69912;SDS011;57198;52.082;5.108;2023-02-18T10:47:12;17.02;;;3.60;;
69912;SDS011;57198;52.082;5.108;2023-02-18T10:49:59;12.65;;;3.22;;
69912;SDS011;57198;52.082;5.108;2023-02-18T10:52:29;13.63;;;3.10;;
69912;SDS011;57198;52.082;5.108;2023-02-18T10:54:57;13.52;;;3.25;;
69912;SDS011;57198;52.082;5.108;2023-02-18T10:57:25;15.88;;;4.25;;
69912;SDS011;57198;52.082;5.108;2023-02-18T10:59:54;10.95;;;3.30;;
69912;SDS011;57198;52.082;5.108;2023-02-18T11:02:23;12.48;;;3.35;;
69912;SDS011;57198;52.082;5.108;2023-02-18T11:04:51;15.73;;;3.97;;
69912;SDS011;57198;52.082;5.108;2023-02-18T11:07:26;9.70;;;3.35;;
69912;SDS011;57198;52.082;5.108;2023-02-18T11:09:56;18.55;;;3.25;;
69912;SDS011;57198;52.082;5.108;2023-02-18T11:17:44;9.20;;;3.30;;
69912;SDS011;57198;52.082;5.108;2023-02-18T11:22:48;13.27;;;2.88;;
69912;SDS011;57198;52.082;5.108;2023-02-18T11:25:20;8.20;;;3.10;;
69912;SDS011;57198;52.082;5.108;2023-02-18T11:27:53;10.98;;;2.92;;
69912;SDS011;57198;52.082;5.108;2023-02-18T11:30:25;13.30;;;2.97;;
69912;SDS011;57198;52.082;5.108;2023-02-18T11:33:03;12.48;;;3.15;;
69912;SDS011;57198;52.082;5.108;2023-02-18T11:35:32;18.77;;;4.00;;
69912;SDS011;57198;52.082;5.108;2023-02-18T11:38:01;10.80;;;2.80;;
69912;SDS011;57198;52.082;5.108;2023-02-18T11:40:29;12.18;;;3.08;;
69912;SDS011;57198;52.082;5.108;2023-02-18T11:45:32;13.90;;;4.05;;
69912;SDS011;57198;52.082;5.108;2023-02-18T11:48:00;10.77;;;2.85;;
69912;SDS011;57198;52.082;5.108;2023-02-18T11:50:30;14.63;;;3.50;;
69912;SDS011;57198;52.082;5.108;2023-02-18T11:52:58;14.32;;;3.45;;
69912;SDS011;57198;52.082;5.108;2023-02-18T11:55:26;10.13;;;3.13;;
69912;SDS011;57198;52.082;5.108;2023-02-18T11:57:57;14.60;;;3.83;;
69912;SDS011;57198;52.082;5.108;2023-02-18T12:02:58;11.85;;;3.45;;
69912;SDS011;57198;52.082;5.108;2023-02-18T12:05:26;12.63;;;3.38;;
69912;SDS011;57198;52.082;5.108;2023-02-18T12:08:04;11.87;;;3.00;;
69912;SDS011;57198;52.082;5.108;2023-02-18T12:10:34;12.52;;;2.90;;
69912;SDS011;57198;52.082;5.108;2023-02-18T12:13:11;12.57;;;3.28;;
69912;SDS011;57198;52.082;5.108;2023-02-18T12:24:08;11.60;;;2.95;;
69912;SDS011;57198;52.082;5.108;2023-02-18T12:42:58;9.70;;;2.35;;
69912;SDS011;57198;52.082;5.108;2023-02-18T12:50:32;11.20;;;2.72;;
69912;SDS011;57198;52.082;5.108;2023-02-18T12:53:17;7.55;;;3.58;;
69912;SDS011;57198;52.082;5.108;2023-02-18T13:06:32;9.20;;;2.58;;
69912;SDS011;57198;52.082;5.108;2023-02-18T13:11:55;9.70;;;2.17;;
69912;SDS011;57198;52.082;5.108;2023-02-18T13:14:25;7.23;;;2.67;;
69912;SDS011;57198;52.082;5.108;2023-02-18T13:16:54;9.50;;;2.55;;
69912;SDS011;57198;52.082;5.108;2023-02-18T13:19:24;6.60;;;2.22;;
69912;SDS011;57198;52.082;5.108;2023-02-18T13:21:53;7.85;;;2.05;;
69912;SDS011;57198;52.082;5.108;2023-02-18T13:24:26;7.72;;;2.88;;
69912;SDS011;57198;52.082;5.108;2023-02-18T13:26:57;9.17;;;3.43;;
69912;SDS011;57198;52.082;5.108;2023-02-18T13:29:38;8.38;;;2.80;;
69912;SDS011;57198;52.082;5.108;2023-02-18T13:35:16;9.90;;;2.65;;
69912;SDS011;57198;52.082;5.108;2023-02-18T13:37:54;9.50;;;2.42;;
69912;SDS011;57198;52.082;5.108;2023-02-18T13:40:26;12.50;;;2.20;;
69912;SDS011;57198;52.082;5.108;2023-02-18T13:45:41;10.75;;;3.55;;
69912;SDS011;57198;52.082;5.108;2023-02-18T13:48:21;9.93;;;2.78;;
69912;SDS011;57198;52.082;5.108;2023-02-18T13:50:51;8.45;;;2.35;;
69912;SDS011;57198;52.082;5.108;2023-02-18T13:53:20;10.13;;;3.20;;
69912;SDS011;57198;52.082;5.108;2023-02-18T13:55:50;13.55;;;3.15;;
69912;SDS011;57198;52.082;5.108;2023-02-18T13:58:21;10.77;;;2.15;;
69912;SDS011;57198;52.082;5.108;2023-02-18T14:00:49;11.68;;;3.08;;
69912;SDS011;57198;52.082;5.108;2023-02-18T14:03:27;9.00;;;2.97;;
69912;SDS011;57198;52.082;5.108;2023-02-18T14:05:58;9.07;;;3.00;;
69912;SDS011;57198;52.082;5.108;2023-02-18T14:08:30;7.25;;;2.90;;
69912;SDS011;57198;52.082;5.108;2023-02-18T14:11:22;9.65;;;2.53;;
69912;SDS011;57198;52.082;5.108;2023-02-18T14:13:53;9.48;;;2.50;;
69912;SDS011;57198;52.082;5.108;2023-02-18T14:16:21;9.75;;;2.78;;
69912;SDS011;57198;52.082;5.108;2023-02-18T14:18:56;9.93;;;2.40;;
69912;SDS011;57198;52.082;5.108;2023-02-18T14:21:37;11.80;;;2.38;;
69912;SDS011;57198;52.082;5.108;2023-02-18T14:24:06;10.60;;;2.60;;
69912;SDS011;57198;52.082;5.108;2023-02-18T14:26:35;11.65;;;3.28;;
69912;SDS011;57198;52.082;5.108;2023-02-18T14:29:25;8.57;;;3.10;;
69912;SDS011;57198;52.082;5.108;2023-02-18T14:31:55;11.73;;;3.00;;
69912;SDS011;57198;52.082;5.108;2023-02-18T14:39:36;8.52;;;2.80;;
69912;SDS011;57198;52.082;5.108;2023-02-18T14:42:33;10.60;;;2.25;;
69912;SDS011;57198;52.082;5.108;2023-02-18T14:47:38;9.32;;;2.40;;
69912;SDS011;57198;52.082;5.108;2023-02-18T14:50:10;9.40;;;3.28;;
69912;SDS011;57198;52.082;5.108;2023-02-18T14:52:42;9.10;;;2.30;;
69912;SDS011;57198;52.082;5.108;2023-02-18T14:57:55;8.67;;;3.13;;
69912;SDS011;57198;52.082;5.108;2023-02-18T15:00:27;8.63;;;2.67;;
69912;SDS011;57198;52.082;5.108;2023-02-18T15:02:58;9.68;;;2.28;;
69912;SDS011;57198;52.082;5.108;2023-02-18T15:05:30;7.15;;;2.75;;
69912;SDS011;57198;52.082;5.108;2023-02-18T15:08:02;8.30;;;2.75;;
69912;SDS011;57198;52.082;5.108;2023-02-18T15:10:33;9.37;;;2.67;;
69912;SDS011;57198;52.082;5.108;2023-02-18T15:13:02;8.50;;;3.58;;
69912;SDS011;57198;52.082;5.108;2023-02-18T15:15:29;7.13;;;3.00;;
69912;SDS011;57198;52.082;5.108;2023-02-18T15:17:58;16.52;;;4.72;;
69912;SDS011;57198;52.082;5.108;2023-02-18T15:20:26;10.48;;;2.92;;
69912;SDS011;57198;52.082;5.108;2023-02-18T15:22:54;8.90;;;3.13;;
69912;SDS011;57198;52.082;5.108;2023-02-18T15:25:21;7.78;;;2.60;;
69912;SDS011;57198;52.082;5.108;2023-02-18T15:27:50;11.70;;;3.00;;
69912;SDS011;57198;52.082;5.108;2023-02-18T15:30:25;10.30;;;2.90;;
69912;SDS011;57198;52.082;5.108;2023-02-18T15:32:55;10.93;;;3.30;;
69912;SDS011;57198;52.082;5.108;2023-02-18T15:35:24;8.87;;;3.17;;
69912;SDS011;57198;52.082;5.108;2023-02-18T15:37:55;11.50;;;3.47;;
69912;SDS011;57198;52.082;5.108;2023-02-18T15:40:24;11.90;;;3.55;;
69912;SDS011;57198;52.082;5.108;2023-02-18T15:42:54;11.15;;;2.97;;
69912;SDS011;57198;52.082;5.108;2023-02-18T15:45:30;11.35;;;3.95;;
69912;SDS011;57198;52.082;5.108;2023-02-18T15:47:59;10.17;;;3.50;;
69912;SDS011;57198;52.082;5.108;2023-02-18T15:50:51;12.43;;;3.20;;
69912;SDS011;57198;52.082;5.108;2023-02-18T15:53:15;11.38;;;3.50;;
69912;SDS011;57198;52.082;5.108;2023-02-18T15:55:45;18.23;;;5.45;;
69912;SDS011;57198;52.082;5.108;2023-02-18T15:58:17;12.27;;;3.83;;
69912;SDS011;57198;52.082;5.108;2023-02-18T16:00:52;17.07;;;3.57;;
69912;SDS011;57198;52.082;5.108;2023-02-18T16:03:24;12.30;;;3.70;;
69912;SDS011;57198;52.082;5.108;2023-02-18T16:08:38;9.30;;;3.30;;
69912;SDS011;57198;52.082;5.108;2023-02-18T16:11:07;7.80;;;3.63;;
69912;SDS011;57198;52.082;5.108;2023-02-18T16:13:36;12.53;;;3.90;;
69912;SDS011;57198;52.082;5.108;2023-02-18T16:16:19;14.10;;;5.20;;
69912;SDS011;57198;52.082;5.108;2023-02-18T16:18:49;17.85;;;3.95;;
69912;SDS011;57198;52.082;5.108;2023-02-18T16:23:45;12.32;;;3.55;;
69912;SDS011;57198;52.082;5.108;2023-02-18T16:28:44;12.25;;;3.67;;
69912;SDS011;57198;52.082;5.108;2023-02-18T16:31:11;12.65;;;4.38;;
69912;SDS011;57198;52.082;5.108;2023-02-18T16:33:41;18.13;;;5.53;;
69912;SDS011;57198;52.082;5.108;2023-02-18T16:36:10;7.93;;;4.05;;
69912;SDS011;57198;52.082;5.108;2023-02-18T16:38:41;12.87;;;4.47;;
69912;SDS011;57198;52.082;5.108;2023-02-18T16:41:10;10.27;;;3.88;;
69912;SDS011;57198;52.082;5.108;2023-02-18T16:43:38;13.32;;;3.42;;
69912;SDS011;57198;52.082;5.108;2023-02-18T16:46:11;15.70;;;4.43;;
69912;SDS011;57198;52.082;5.108;2023-02-18T16:48:41;14.38;;;4.35;;
69912;SDS011;57198;52.082;5.108;2023-02-18T16:51:25;16.60;;;5.10;;
69912;SDS011;57198;52.082;5.108;2023-02-18T16:53:55;14.38;;;4.13;;
69912;SDS011;57198;52.082;5.108;2023-02-18T16:56:24;12.63;;;3.78;;
69912;SDS011;57198;52.082;5.108;2023-02-18T16:58:51;22.25;;;5.30;;
69912;SDS011;57198;52.082;5.108;2023-02-18T17:01:23;13.57;;;3.67;;